createdAt,value
2022-11-16T00:01:20.973Z,90.3
2022-11-16T00:04:20.976Z,90.3
2022-11-16T00:07:20.999Z,90.2
2022-11-16T00:10:20.994Z,90.2
2022-11-16T00:13:20.965Z,90.3
2022-11-16T00:16:20.993Z,90.2
2022-11-16T00:19:20.986Z,90.2
2022-11-16T00:22:20.976Z,90.2
2022-11-16T00:25:20.978Z,90.1
2022-11-16T00:28:21.004Z,90.1
2022-11-16T00:31:20.993Z,90
2022-11-16T00:34:20.995Z,90
2022-11-16T00:37:20.985Z,89.9
2022-11-16T00:40:20.988Z,89.9
2022-11-16T00:43:20.994Z,89.8
2022-11-16T00:46:21.028Z,89.8
2022-11-16T00:49:21.005Z,89.8
2022-11-16T00:52:20.998Z,89.8
2022-11-16T00:55:21.000Z,89.9
2022-11-16T00:58:21.002Z,89.9
2022-11-16T01:01:21.064Z,89.9
2022-11-16T01:04:21.042Z,89.9
2022-11-16T01:07:21.043Z,89.9
2022-11-16T01:10:21.007Z,90
2022-11-16T01:13:21.015Z,90
2022-11-16T01:16:21.191Z,90
2022-11-16T01:19:21.030Z,90.1
2022-11-16T01:22:21.047Z,90.1
2022-11-16T01:25:21.026Z,90.1
2022-11-16T01:28:21.033Z,90.2
2022-11-16T01:31:21.030Z,90.3
2022-11-16T01:34:21.041Z,90.3
2022-11-16T01:37:21.044Z,90.3
2022-11-16T01:40:21.061Z,90.5
2022-11-16T01:43:21.040Z,90.5
2022-11-16T01:46:21.083Z,90.7
2022-11-16T01:49:21.058Z,90.8
2022-11-16T01:52:21.051Z,90.9
2022-11-16T01:55:21.055Z,90.9
2022-11-16T01:58:21.082Z,90.9
2022-11-16T02:01:21.098Z,91
2022-11-16T02:04:21.064Z,91.1
2022-11-16T02:07:21.128Z,91.3
2022-11-16T02:10:21.061Z,91.4
2022-11-16T02:13:21.070Z,91.4
2022-11-16T02:16:21.093Z,91.4
2022-11-16T02:19:21.083Z,91.4
2022-11-16T02:22:21.084Z,91.5
2022-11-16T02:25:21.087Z,91.5
2022-11-16T02:28:21.075Z,91.6
2022-11-16T02:31:21.079Z,91.7
2022-11-16T02:34:21.119Z,91.8
2022-11-16T02:37:21.087Z,91.9
2022-11-16T02:40:21.090Z,91.9
2022-11-16T02:43:21.093Z,92
2022-11-16T02:46:21.098Z,92
2022-11-16T02:49:21.113Z,92.1
2022-11-16T02:52:21.125Z,92.2
2022-11-16T02:55:21.111Z,92.3
2022-11-16T02:58:21.123Z,92.4
2022-11-16T03:01:21.135Z,92.5
2022-11-16T03:04:21.126Z,92.7
2022-11-16T03:07:21.155Z,92.7
2022-11-16T03:10:21.148Z,92.8
2022-11-16T03:13:21.136Z,92.9
2022-11-16T03:16:21.128Z,92.9
2022-11-16T03:19:21.143Z,93
2022-11-16T03:22:21.139Z,93.1
2022-11-16T03:25:21.145Z,93.1
2022-11-16T03:28:21.169Z,93.2
2022-11-16T03:31:21.145Z,93.2
2022-11-16T03:34:21.160Z,93.2
2022-11-16T03:37:21.149Z,93.2
2022-11-16T03:40:21.155Z,93.2
2022-11-16T03:43:21.159Z,93.2
2022-11-16T03:46:21.193Z,93.2
2022-11-16T03:49:21.181Z,93.2
2022-11-16T03:52:21.173Z,93.2
2022-11-16T03:55:21.178Z,93.2
2022-11-16T03:58:21.184Z,93.2
2022-11-16T04:01:21.204Z,93.2
2022-11-16T04:04:21.221Z,93.2
2022-11-16T04:07:21.239Z,93.1
2022-11-16T04:10:21.192Z,93.1
2022-11-16T04:13:21.194Z,93.2
2022-11-16T04:16:21.200Z,93.2
2022-11-16T04:19:21.205Z,93.2
2022-11-16T04:22:21.230Z,93.2
2022-11-16T04:25:21.204Z,93.3
2022-11-16T04:28:21.209Z,93.3
2022-11-16T04:31:21.213Z,93.4
2022-11-16T04:34:21.224Z,93.4
2022-11-16T04:37:21.217Z,93.5
2022-11-16T04:40:21.249Z,93.5
2022-11-16T04:43:21.218Z,93.5
2022-11-16T04:46:21.220Z,93.6
2022-11-16T04:49:21.228Z,93.7
2022-11-16T04:52:21.234Z,93.7
2022-11-16T04:55:21.233Z,93.7
2022-11-16T04:58:21.317Z,93.6
2022-11-16T05:01:21.321Z,93.6
2022-11-16T05:04:21.256Z,93.5
2022-11-16T05:07:21.351Z,93.5
2022-11-16T05:10:21.258Z,93.3
2022-11-16T05:13:21.258Z,93.2
2022-11-16T05:16:21.286Z,93.2
2022-11-16T05:19:21.278Z,93.1
2022-11-16T05:22:21.265Z,93
2022-11-16T05:25:21.267Z,92.9
2022-11-16T05:28:21.277Z,92.7
2022-11-16T05:31:21.280Z,92.7
2022-11-16T05:34:21.323Z,92.7
2022-11-16T05:37:21.290Z,92.6
2022-11-16T05:40:21.296Z,92.6
2022-11-16T05:43:21.303Z,92.6
2022-11-16T05:46:21.309Z,92.6
2022-11-16T05:49:21.312Z,92.6
2022-11-16T05:52:21.339Z,92.6
2022-11-16T05:55:21.319Z,92.6
2022-11-16T05:58:21.318Z,92.5
2022-11-16T06:01:21.344Z,92.5
2022-11-16T06:04:23.297Z,92.4
2022-11-16T06:07:21.351Z,92.4
2022-11-16T06:10:21.341Z,92.5
2022-11-16T06:13:21.348Z,92.5
2022-11-16T06:16:21.642Z,92.6
2022-11-16T06:19:21.365Z,92.6
2022-11-16T06:22:21.358Z,92.6
2022-11-16T06:25:21.370Z,92.6
2022-11-16T06:28:21.363Z,92.6
2022-11-16T06:31:21.373Z,92.5
2022-11-16T06:34:21.504Z,92.5
2022-11-16T06:37:21.379Z,92.5
2022-11-16T06:40:21.383Z,92.5
2022-11-16T06:43:21.387Z,92.5
2022-11-16T06:46:21.394Z,92.5
2022-11-16T06:49:21.406Z,92.5
2022-11-16T06:52:21.615Z,92.5
2022-11-16T06:55:21.415Z,92.5
2022-11-16T06:58:21.415Z,92.4
2022-11-16T07:01:21.456Z,92.4
2022-11-16T07:04:21.441Z,92.4
2022-11-16T07:07:21.460Z,92.4
2022-11-16T07:10:21.592Z,92.3
2022-11-16T07:13:21.449Z,92.3
2022-11-16T07:16:21.464Z,92.3
2022-11-16T07:19:21.473Z,92.3
2022-11-16T07:22:21.469Z,92.2
2022-11-16T07:25:21.475Z,92.1
2022-11-16T07:28:21.501Z,92.1
2022-11-16T07:31:21.480Z,92.1
2022-11-16T07:34:21.495Z,92.1
2022-11-16T07:37:21.498Z,92
2022-11-16T07:40:21.498Z,91.9
2022-11-16T07:43:21.503Z,91.9
2022-11-16T07:46:45.771Z,91.9
2022-11-16T07:49:21.522Z,91.9
2022-11-16T07:52:21.517Z,91.8
2022-11-16T07:55:21.530Z,91.7
2022-11-16T07:58:21.531Z,91.7
2022-11-16T08:01:21.549Z,91.8
2022-11-16T08:04:21.575Z,91.7
2022-11-16T08:07:21.622Z,91.7
2022-11-16T08:10:21.594Z,91.7
2022-11-16T08:13:21.564Z,91.7
2022-11-16T08:16:21.570Z,91.7
2022-11-16T08:19:21.586Z,91.7
2022-11-16T08:22:21.702Z,91.7
2022-11-16T08:25:21.595Z,91.6
2022-11-16T08:28:21.599Z,91.5
2022-11-16T08:31:21.606Z,91.5
2022-11-16T08:34:21.619Z,91.5
2022-11-16T08:37:21.635Z,91.5
2022-11-16T08:40:21.746Z,91.5
2022-11-16T08:43:21.635Z,91.5
2022-11-16T08:46:21.644Z,91.5
2022-11-16T08:49:21.663Z,91.5
2022-11-16T08:52:21.656Z,91.6
2022-11-16T08:55:21.661Z,91.6
2022-11-16T08:58:21.691Z,91.7
2022-11-16T09:01:21.721Z,91.7
2022-11-16T09:04:21.690Z,91.8
2022-11-16T09:07:21.726Z,91.8
2022-11-16T09:10:21.697Z,91.9
2022-11-16T09:13:21.690Z,91.9
2022-11-16T09:16:21.721Z,92
2022-11-16T09:19:21.712Z,92
2022-11-16T09:22:21.732Z,92
2022-11-16T09:25:21.715Z,92.1
2022-11-16T09:28:21.721Z,92.2
2022-11-16T09:31:23.286Z,92.3
2022-11-16T09:34:21.858Z,92.3
2022-11-16T09:37:21.734Z,92.3
2022-11-16T09:40:21.734Z,92.1
2022-11-16T09:43:21.743Z,92
2022-11-16T09:46:21.748Z,92
2022-11-16T09:49:21.780Z,91.9
2022-11-16T09:52:21.876Z,91.8
2022-11-16T09:55:21.763Z,91.7
2022-11-16T09:58:21.766Z,91.5
2022-11-16T10:01:21.810Z,91.4
2022-11-16T10:04:21.783Z,91.4
2022-11-16T10:07:21.845Z,91.2
2022-11-16T10:10:21.899Z,91.1
2022-11-16T10:13:21.794Z,91
2022-11-16T10:16:21.800Z,90.8
2022-11-16T10:19:21.819Z,90.7
2022-11-16T10:22:21.811Z,90.6
2022-11-16T10:25:21.817Z,90.6
2022-11-16T10:28:21.940Z,90.9
2022-11-16T10:31:21.836Z,90.8
2022-11-16T10:34:21.849Z,91
2022-11-16T10:37:21.844Z,91.1
2022-11-16T10:40:21.846Z,91.3
2022-11-16T10:43:21.852Z,91.3
2022-11-16T10:46:22.106Z,91.5
2022-11-16T10:49:21.877Z,91.6
2022-11-16T10:52:21.874Z,91.6
2022-11-16T10:55:21.875Z,91.7
2022-11-16T10:58:21.919Z,91.8
2022-11-16T11:01:21.929Z,91.9
2022-11-16T11:04:22.041Z,92
2022-11-16T11:07:21.948Z,92.1
2022-11-16T11:10:21.909Z,92.2
2022-11-16T11:13:21.911Z,92.3
2022-11-16T11:16:21.915Z,92.5
2022-11-16T11:19:21.936Z,92.7
2022-11-16T11:22:22.054Z,93
2022-11-16T11:25:21.932Z,93.1
2022-11-16T11:28:21.944Z,93.4
2022-11-16T11:31:21.952Z,93.4
2022-11-16T11:34:21.989Z,93.7
2022-11-16T11:37:21.963Z,93.8
2022-11-16T11:40:21.991Z,93.9
2022-11-16T11:43:21.979Z,94.1
2022-11-16T11:46:21.983Z,94.2
2022-11-16T11:49:21.996Z,94.3
2022-11-16T11:52:21.991Z,94.4
2022-11-16T11:55:21.997Z,94.5
2022-11-16T11:58:22.131Z,94.7
2022-11-16T12:01:24.993Z,94.7
2022-11-16T12:04:22.022Z,94.8
2022-11-16T12:07:22.035Z,94.9
2022-11-16T12:10:22.029Z,95
2022-11-16T12:13:22.032Z,95
2022-11-16T12:16:22.171Z,95.1
2022-11-16T12:19:22.073Z,95.1
2022-11-16T12:22:22.073Z,95.2
2022-11-16T12:25:22.074Z,95.3
2022-11-16T12:28:22.079Z,95.3
2022-11-16T12:31:22.093Z,95.4
2022-11-16T12:34:22.230Z,95.4
2022-11-16T12:37:22.106Z,95.4
2022-11-16T12:40:22.110Z,95.5
2022-11-16T12:43:22.119Z,95.5
2022-11-16T12:46:22.128Z,95.5
2022-11-16T12:49:22.137Z,95.6
2022-11-16T12:52:22.189Z,95.6
2022-11-16T12:55:26.638Z,95.6
2022-11-16T12:58:22.156Z,95.7
2022-11-16T13:01:22.174Z,95.7
2022-11-16T13:04:22.175Z,95.8
2022-11-16T13:07:22.254Z,95.8
2022-11-16T13:10:22.296Z,95.9
2022-11-16T13:13:35.760Z,95.9
2022-11-16T13:16:22.190Z,95.9
2022-11-16T13:19:22.207Z,96
2022-11-16T13:22:22.205Z,96
2022-11-16T13:25:22.210Z,96
2022-11-16T13:28:22.335Z,96.1
2022-11-16T13:31:22.221Z,96.1
2022-11-16T13:34:22.242Z,96.1
2022-11-16T13:37:22.232Z,96.1
2022-11-16T13:40:22.233Z,96.2
2022-11-16T13:43:22.267Z,96.2
2022-11-16T13:46:48.760Z,96.2
2022-11-16T13:49:22.267Z,96.2
2022-11-16T13:52:24.029Z,96.2
2022-11-16T13:55:22.268Z,96.2
2022-11-16T13:58:22.276Z,96.2
2022-11-16T14:01:22.352Z,96.2
2022-11-16T14:04:22.420Z,96.2
2022-11-16T14:07:22.365Z,96.3
2022-11-16T14:10:22.313Z,96.3
2022-11-16T14:13:22.308Z,96.3
2022-11-16T14:16:22.312Z,96.3
2022-11-16T14:19:22.355Z,96.4
2022-11-16T14:22:22.356Z,96.4
2022-11-16T14:25:22.333Z,96.4
2022-11-16T14:28:22.348Z,96.4
2022-11-16T14:31:22.355Z,96.5
2022-11-16T14:34:22.369Z,96.4
2022-11-16T14:37:22.367Z,96.5
2022-11-16T14:40:22.398Z,96.5
2022-11-16T14:43:22.381Z,96.6
2022-11-16T14:46:22.382Z,96.6
2022-11-16T14:49:22.402Z,96.6
2022-11-16T14:52:22.400Z,96.6
2022-11-16T14:55:22.412Z,96.7
2022-11-16T14:58:22.534Z,96.7
2022-11-16T15:01:22.425Z,96.7
2022-11-16T15:04:22.443Z,96.7
2022-11-16T15:07:22.442Z,96.7
2022-11-16T15:10:22.442Z,96.7
2022-11-16T15:13:22.448Z,96.7
2022-11-16T15:16:22.578Z,96.7
2022-11-16T15:19:22.482Z,96.8
2022-11-16T15:22:22.471Z,96.7
2022-11-16T15:25:22.484Z,96.8
2022-11-16T15:28:22.493Z,96.8
2022-11-16T15:31:22.502Z,96.8
2022-11-16T15:34:22.636Z,96.8
2022-11-16T15:37:22.520Z,96.9
2022-11-16T15:40:22.524Z,96.9
2022-11-16T15:43:22.535Z,96.9
2022-11-16T15:46:22.544Z,97
2022-11-16T15:49:22.570Z,97
2022-11-16T15:52:22.581Z,97
2022-11-16T15:55:22.824Z,97
2022-11-16T15:58:22.571Z,97
2022-11-16T16:01:22.614Z,97
2022-11-16T16:04:22.596Z,97
2022-11-16T16:07:22.627Z,97
2022-11-16T16:10:22.712Z,97
2022-11-16T16:13:22.606Z,97
2022-11-16T16:16:22.726Z,97
2022-11-16T16:19:22.628Z,97
2022-11-16T16:22:22.628Z,97
2022-11-16T16:25:22.639Z,97
2022-11-16T16:28:22.759Z,97
2022-11-16T16:31:22.649Z,97
2022-11-16T16:34:22.673Z,97
2022-11-16T16:37:22.663Z,97
2022-11-16T16:40:22.673Z,97
2022-11-16T16:43:22.680Z,97
2022-11-16T16:46:22.720Z,96.9
2022-11-16T16:49:22.705Z,96.9
2022-11-16T16:52:22.695Z,96.9
2022-11-16T16:55:22.709Z,97
2022-11-16T16:58:22.710Z,96.9
2022-11-16T17:01:22.768Z,96.9
2022-11-16T17:04:22.889Z,96.7
2022-11-16T17:07:22.795Z,96.7
2022-11-16T17:10:22.741Z,96.6
2022-11-16T17:13:22.742Z,96.7
2022-11-16T17:16:22.754Z,96.7
2022-11-16T17:19:22.763Z,96.6
2022-11-16T17:22:22.888Z,96.6
2022-11-16T17:25:22.774Z,96.5
2022-11-16T17:28:22.783Z,96.5
2022-11-16T17:31:22.782Z,96.5
2022-11-16T17:34:22.799Z,96.5
2022-11-16T17:37:22.796Z,96.5
2022-11-16T17:40:22.826Z,96.6
2022-11-16T17:43:22.801Z,96.6
2022-11-16T17:46:22.808Z,96.6
2022-11-16T17:49:22.833Z,96.6
2022-11-16T17:52:22.825Z,96.6
2022-11-16T17:55:22.839Z,96.6
2022-11-16T17:58:22.960Z,96.6
2022-11-16T18:01:22.910Z,96.3
2022-11-16T18:04:22.867Z,96.4
2022-11-16T18:07:22.890Z,96.5
2022-11-16T18:10:22.867Z,96.5
2022-11-16T18:13:22.872Z,96.5
2022-11-16T18:16:22.997Z,96.5
2022-11-16T18:19:22.901Z,96.5
2022-11-16T18:22:22.906Z,96.5
2022-11-16T18:25:22.907Z,96.6
2022-11-16T18:28:22.930Z,96.6
2022-11-16T18:31:22.922Z,96.7
2022-11-16T18:34:22.942Z,96.7
2022-11-16T18:37:22.928Z,96.7
2022-11-16T18:40:22.917Z,96.7
2022-11-16T18:43:22.928Z,96.7
2022-11-16T18:46:22.988Z,96.6
2022-11-16T18:49:22.945Z,96.7
2022-11-16T18:52:22.983Z,96.7
2022-11-16T18:55:22.950Z,96.7
2022-11-16T18:58:48.769Z,96.7
2022-11-16T19:01:23.131Z,96.7
2022-11-16T19:04:22.969Z,96.7
2022-11-16T19:07:23.060Z,96.7
2022-11-16T19:10:22.991Z,96.7
2022-11-16T19:13:22.975Z,96.7
2022-11-16T19:16:23.094Z,96.6
2022-11-16T19:19:22.988Z,96.7
2022-11-16T19:22:22.978Z,96.7
2022-11-16T19:25:22.982Z,96.6
2022-11-16T19:28:23.004Z,96.7
2022-11-16T19:31:22.983Z,96.7
2022-11-16T19:34:22.991Z,96.7
2022-11-16T19:37:22.986Z,96.7
2022-11-16T19:40:25.093Z,96.7
2022-11-16T19:43:22.987Z,96.7
2022-11-16T19:46:23.045Z,96.7
2022-11-16T19:49:23.008Z,96.7
2022-11-16T19:52:23.015Z,96.7
2022-11-16T19:55:23.026Z,96.7
2022-11-16T19:58:23.041Z,96.7
2022-11-16T20:01:23.123Z,96.7
2022-11-16T20:04:23.200Z,96.7
2022-11-16T20:07:23.163Z,96.7
2022-11-16T20:10:23.111Z,96.6
2022-11-16T20:13:23.122Z,96.7
2022-11-16T20:16:23.147Z,96.7
2022-11-16T20:19:23.157Z,96.7
2022-11-16T20:22:23.287Z,96.7
2022-11-16T20:25:23.181Z,96.7
2022-11-16T20:28:23.197Z,96.6
2022-11-16T20:31:23.222Z,96.7
2022-11-16T20:34:23.242Z,96.7
2022-11-16T20:37:23.242Z,96.6
2022-11-16T20:40:23.370Z,96.6
2022-11-16T20:43:23.272Z,96.6
2022-11-16T20:46:23.288Z,96.6
2022-11-16T20:49:23.320Z,96.6
2022-11-16T20:52:23.323Z,96.6
2022-11-16T20:55:23.342Z,96.6
2022-11-16T20:58:23.470Z,96.6
2022-11-16T21:01:23.414Z,96.6
2022-11-16T21:04:23.395Z,96.6
2022-11-16T21:07:23.431Z,96.5
2022-11-16T21:10:23.421Z,96.5
2022-11-16T21:13:23.439Z,96.5
2022-11-16T21:16:23.477Z,96.5
2022-11-16T21:19:23.479Z,96.5
2022-11-16T21:22:25.077Z,96.4
2022-11-16T21:25:23.508Z,96.4
2022-11-16T21:28:25.587Z,96.2
2022-11-16T21:31:23.540Z,96.2
2022-11-16T21:34:23.598Z,96.2
2022-11-16T21:37:23.573Z,96.1
2022-11-16T21:40:23.588Z,96.1
2022-11-16T21:43:23.606Z,96
2022-11-16T21:46:23.618Z,96
2022-11-16T21:49:23.662Z,95.9
2022-11-16T21:52:23.677Z,96
2022-11-16T21:55:23.669Z,95.8
2022-11-16T21:58:23.688Z,95.5
2022-11-16T22:01:23.782Z,95.6
2022-11-16T22:04:23.732Z,95.5
2022-11-16T22:07:23.800Z,95.5
2022-11-16T22:10:23.881Z,95.4
2022-11-16T22:13:23.784Z,95.5
2022-11-16T22:16:23.877Z,95.3
2022-11-16T22:19:23.836Z,95.3
2022-11-16T22:22:23.835Z,95.1
2022-11-16T22:25:23.853Z,95
2022-11-16T22:28:23.894Z,94.9
2022-11-16T22:31:23.894Z,95
2022-11-16T22:34:23.923Z,94.8
2022-11-16T22:37:23.942Z,94.9
2022-11-16T22:40:23.957Z,94.9
2022-11-16T22:43:23.970Z,94.9
2022-11-16T22:46:24.103Z,94.9
2022-11-16T22:49:24.023Z,94.8
2022-11-16T22:52:24.038Z,94.9
2022-11-16T22:55:24.050Z,94.9
2022-11-16T22:58:24.083Z,95
2022-11-16T23:01:24.087Z,95
2022-11-16T23:04:24.236Z,95
2022-11-16T23:07:24.192Z,94.9
2022-11-16T23:10:24.172Z,94.9
2022-11-16T23:13:24.164Z,95
2022-11-16T23:16:24.199Z,95
2022-11-16T23:19:24.232Z,95
2022-11-16T23:22:24.366Z,95.1
2022-11-16T23:25:24.239Z,95.3
2022-11-16T23:28:24.239Z,95.3
2022-11-16T23:31:24.246Z,95.4
2022-11-16T23:34:24.254Z,95.5
2022-11-16T23:37:24.281Z,95.6
2022-11-16T23:40:24.382Z,95.7
2022-11-16T23:43:24.268Z,95.7
2022-11-16T23:46:24.273Z,96
2022-11-16T23:49:24.292Z,96
2022-11-16T23:52:24.285Z,96
2022-11-16T23:55:24.277Z,96.1
2022-11-16T23:58:24.296Z,96
